sensor_id;sensor_type;location;lat;lon;timestamp;temperature;humidity
76102;SHT30;64830;46.910;6.354;2024-03-02T00:00:25;3.78;66.99
76102;SHT30;64830;46.910;6.354;2024-03-02T00:03:00;3.77;66.83
76102;SHT30;64830;46.910;6.354;2024-03-02T00:05:31;3.77;66.90
76102;SHT30;64830;46.910;6.354;2024-03-02T00:08:34;3.74;66.84
76102;SHT30;64830;46.910;6.354;2024-03-02T00:11:02;3.74;66.75
76102;SHT30;64830;46.910;6.354;2024-03-02T00:16:41;3.75;66.29
76102;SHT30;64830;46.910;6.354;2024-03-02T00:19:13;3.74;65.57
76102;SHT30;64830;46.910;6.354;2024-03-02T00:21:59;3.71;65.40
76102;SHT30;64830;46.910;6.354;2024-03-02T00:27:55;3.77;65.22
76102;SHT30;64830;46.910;6.354;2024-03-02T00:33:01;3.77;64.44
76102;SHT30;64830;46.910;6.354;2024-03-02T00:35:32;3.77;65.09
76102;SHT30;64830;46.910;6.354;2024-03-02T00:38:05;3.75;64.93
76102;SHT30;64830;46.910;6.354;2024-03-02T00:40:38;3.72;65.22
76102;SHT30;64830;46.910;6.354;2024-03-02T00:43:04;3.72;65.43
76102;SHT30;64830;46.910;6.354;2024-03-02T00:45:39;3.72;65.42
76102;SHT30;64830;46.910;6.354;2024-03-02T00:48:05;3.70;65.35
76102;SHT30;64830;46.910;6.354;2024-03-02T00:50:31;3.67;65.64
76102;SHT30;64830;46.910;6.354;2024-03-02T00:52:57;3.65;65.75
76102;SHT30;64830;46.910;6.354;2024-03-02T00:55:23;3.64;65.85
76102;SHT30;64830;46.910;6.354;2024-03-02T00:57:48;3.61;66.19
76102;SHT30;64830;46.910;6.354;2024-03-02T01:00:14;3.60;66.23
76102;SHT30;64830;46.910;6.354;2024-03-02T01:02:49;3.58;66.49
76102;SHT30;64830;46.910;6.354;2024-03-02T01:05:15;3.58;66.71
76102;SHT30;64830;46.910;6.354;2024-03-02T01:07:41;3.61;66.85
76102;SHT30;64830;46.910;6.354;2024-03-02T01:10:07;3.60;66.85
76102;SHT30;64830;46.910;6.354;2024-03-02T01:12:32;3.60;67.01
76102;SHT30;64830;46.910;6.354;2024-03-02T01:14:58;3.63;67.03
76102;SHT30;64830;46.910;6.354;2024-03-02T01:17:23;3.65;67.21
76102;SHT30;64830;46.910;6.354;2024-03-02T01:19:52;3.68;67.32
76102;SHT30;64830;46.910;6.354;2024-03-02T01:22:20;3.72;67.17
76102;SHT30;64830;46.910;6.354;2024-03-02T01:24:52;3.74;67.45
76102;SHT30;64830;46.910;6.354;2024-03-02T01:27:18;3.75;67.38
76102;SHT30;64830;46.910;6.354;2024-03-02T01:29:46;3.77;67.26
76102;SHT30;64830;46.910;6.354;2024-03-02T01:32:15;3.78;67.44
76102;SHT30;64830;46.910;6.354;2024-03-02T01:34:43;3.78;67.56
76102;SHT30;64830;46.910;6.354;2024-03-02T01:37:09;3.77;67.68
76102;SHT30;64830;46.910;6.354;2024-03-02T01:39:35;3.78;67.68
76102;SHT30;64830;46.910;6.354;2024-03-02T01:42:01;3.78;67.74
76102;SHT30;64830;46.910;6.354;2024-03-02T01:44:26;3.82;67.77
76102;SHT30;64830;46.910;6.354;2024-03-02T01:46:52;3.82;67.79
76102;SHT30;64830;46.910;6.354;2024-03-02T01:49:17;3.85;67.89
76102;SHT30;64830;46.910;6.354;2024-03-02T01:51:44;3.83;67.95
76102;SHT30;64830;46.910;6.354;2024-03-02T01:54:09;3.85;68.15
76102;SHT30;64830;46.910;6.354;2024-03-02T01:56:34;3.88;68.46
76102;SHT30;64830;46.910;6.354;2024-03-02T01:59:00;3.88;68.58
76102;SHT30;64830;46.910;6.354;2024-03-02T02:01:26;3.91;68.72
76102;SHT30;64830;46.910;6.354;2024-03-02T02:03:52;3.95;68.74
76102;SHT30;64830;46.910;6.354;2024-03-02T02:06:20;3.96;68.89
76102;SHT30;64830;46.910;6.354;2024-03-02T02:08:46;4.02;68.90
76102;SHT30;64830;46.910;6.354;2024-03-02T02:11:17;4.03;69.03
76102;SHT30;64830;46.910;6.354;2024-03-02T02:13:43;4.06;69.24
76102;SHT30;64830;46.910;6.354;2024-03-02T02:16:11;4.10;69.60
76102;SHT30;64830;46.910;6.354;2024-03-02T02:18:39;4.10;69.70
76102;SHT30;64830;46.910;6.354;2024-03-02T02:21:05;4.17;69.83
76102;SHT30;64830;46.910;6.354;2024-03-02T02:23:30;4.20;69.92
76102;SHT30;64830;46.910;6.354;2024-03-02T02:25:55;4.24;69.78
76102;SHT30;64830;46.910;6.354;2024-03-02T02:28:21;4.24;69.83
76102;SHT30;64830;46.910;6.354;2024-03-02T02:30:46;4.21;69.78
76102;SHT30;64830;46.910;6.354;2024-03-02T02:33:12;4.21;69.77
76102;SHT30;64830;46.910;6.354;2024-03-02T02:35:37;4.20;69.92
76102;SHT30;64830;46.910;6.354;2024-03-02T02:38:03;4.16;69.92
76102;SHT30;64830;46.910;6.354;2024-03-02T02:40:29;4.13;69.93
76102;SHT30;64830;46.910;6.354;2024-03-02T02:42:56;4.11;70.08
76102;SHT30;64830;46.910;6.354;2024-03-02T02:45:25;4.10;70.23
76102;SHT30;64830;46.910;6.354;2024-03-02T02:47:50;4.11;70.29
76102;SHT30;64830;46.910;6.354;2024-03-02T02:50:16;4.10;70.40
76102;SHT30;64830;46.910;6.354;2024-03-02T02:52:42;4.13;70.42
76102;SHT30;64830;46.910;6.354;2024-03-02T02:55:10;4.11;70.73
76102;SHT30;64830;46.910;6.354;2024-03-02T02:57:37;4.14;70.71
76102;SHT30;64830;46.910;6.354;2024-03-02T03:00:09;4.19;70.77
76102;SHT30;64830;46.910;6.354;2024-03-02T03:02:42;4.24;70.73
76102;SHT30;64830;46.910;6.354;2024-03-02T03:05:18;4.29;70.80
76102;SHT30;64830;46.910;6.354;2024-03-02T03:07:46;4.32;70.95
76102;SHT30;64830;46.910;6.354;2024-03-02T03:10:15;4.34;71.01
76102;SHT30;64830;46.910;6.354;2024-03-02T03:12:43;4.37;71.02
76102;SHT30;64830;46.910;6.354;2024-03-02T03:15:09;4.43;70.99
76102;SHT30;64830;46.910;6.354;2024-03-02T03:17:35;4.48;70.94
76102;SHT30;64830;46.910;6.354;2024-03-02T03:20:02;4.50;70.90
76102;SHT30;64830;46.910;6.354;2024-03-02T03:22:30;4.53;70.87
76102;SHT30;64830;46.910;6.354;2024-03-02T03:24:56;4.55;70.94
76102;SHT30;64830;46.910;6.354;2024-03-02T03:27:21;4.60;70.85
76102;SHT30;64830;46.910;6.354;2024-03-02T03:29:47;4.61;70.98
76102;SHT30;64830;46.910;6.354;2024-03-02T03:32:12;4.61;71.00
76102;SHT30;64830;46.910;6.354;2024-03-02T03:34:37;4.61;71.06
76102;SHT30;64830;46.910;6.354;2024-03-02T03:37:03;4.62;71.11
76102;SHT30;64830;46.910;6.354;2024-03-02T03:39:28;4.62;71.30
76102;SHT30;64830;46.910;6.354;2024-03-02T03:41:54;4.64;71.36
76102;SHT30;64830;46.910;6.354;2024-03-02T03:44:20;4.68;71.38
76102;SHT30;64830;46.910;6.354;2024-03-02T03:46:46;4.69;71.29
76102;SHT30;64830;46.910;6.354;2024-03-02T03:49:11;4.72;71.38
76102;SHT30;64830;46.910;6.354;2024-03-02T03:51:39;4.73;71.33
76102;SHT30;64830;46.910;6.354;2024-03-02T03:54:05;4.73;71.35
76102;SHT30;64830;46.910;6.354;2024-03-02T03:56:30;4.78;71.35
76102;SHT30;64830;46.910;6.354;2024-03-02T03:58:55;4.81;71.31
76102;SHT30;64830;46.910;6.354;2024-03-02T04:01:21;4.83;71.25
76102;SHT30;64830;46.910;6.354;2024-03-02T04:03:50;4.82;71.26
76102;SHT30;64830;46.910;6.354;2024-03-02T04:06:18;4.82;71.37
76102;SHT30;64830;46.910;6.354;2024-03-02T04:08:43;4.82;71.47
76102;SHT30;64830;46.910;6.354;2024-03-02T04:11:12;4.82;71.56
76102;SHT30;64830;46.910;6.354;2024-03-02T04:13:37;4.81;71.71
76102;SHT30;64830;46.910;6.354;2024-03-02T04:16:03;4.81;71.84
76102;SHT30;64830;46.910;6.354;2024-03-02T04:18:30;4.79;71.90
76102;SHT30;64830;46.910;6.354;2024-03-02T04:20:56;4.81;72.01
76102;SHT30;64830;46.910;6.354;2024-03-02T04:23:25;4.81;72.06
76102;SHT30;64830;46.910;6.354;2024-03-02T04:25:51;4.79;72.10
76102;SHT30;64830;46.910;6.354;2024-03-02T04:28:16;4.78;72.11
76102;SHT30;64830;46.910;6.354;2024-03-02T04:30:42;4.76;72.34
76102;SHT30;64830;46.910;6.354;2024-03-02T04:33:07;4.73;72.50
76102;SHT30;64830;46.910;6.354;2024-03-02T04:35:38;4.72;72.53
76102;SHT30;64830;46.910;6.354;2024-03-02T04:38:03;4.71;72.54
76102;SHT30;64830;46.910;6.354;2024-03-02T04:40:29;4.69;72.60
76102;SHT30;64830;46.910;6.354;2024-03-02T04:42:54;4.69;72.61
76102;SHT30;64830;46.910;6.354;2024-03-02T04:45:31;4.67;72.69
76102;SHT30;64830;46.910;6.354;2024-03-02T04:47:56;4.62;72.79
76102;SHT30;64830;46.910;6.354;2024-03-02T04:50:22;4.61;72.84
76102;SHT30;64830;46.910;6.354;2024-03-02T04:52:47;4.58;72.91
76102;SHT30;64830;46.910;6.354;2024-03-02T04:55:15;4.57;73.19
76102;SHT30;64830;46.910;6.354;2024-03-02T04:57:48;4.57;73.29
76102;SHT30;64830;46.910;6.354;2024-03-02T05:00:16;4.57;73.41
76102;SHT30;64830;46.910;6.354;2024-03-02T05:02:44;4.60;73.60
76102;SHT30;64830;46.910;6.354;2024-03-02T05:05:13;4.58;73.68
76102;SHT30;64830;46.910;6.354;2024-03-02T05:07:48;4.58;73.62
76102;SHT30;64830;46.910;6.354;2024-03-02T05:10:21;4.60;73.63
76102;SHT30;64830;46.910;6.354;2024-03-02T05:12:55;4.62;73.71
76102;SHT30;64830;46.910;6.354;2024-03-02T05:15:24;4.64;73.79
76102;SHT30;64830;46.910;6.354;2024-03-02T05:17:50;4.61;73.94
76102;SHT30;64830;46.910;6.354;2024-03-02T05:20:23;4.61;74.15
76102;SHT30;64830;46.910;6.354;2024-03-02T05:22:48;4.64;74.32
76102;SHT30;64830;46.910;6.354;2024-03-02T05:25:15;4.62;74.23
76102;SHT30;64830;46.910;6.354;2024-03-02T05:27:43;4.64;74.06
76102;SHT30;64830;46.910;6.354;2024-03-02T05:30:10;4.62;74.44
76102;SHT30;64830;46.910;6.354;2024-03-02T05:32:38;4.62;74.39
76102;SHT30;64830;46.910;6.354;2024-03-02T05:35:04;4.62;74.29
76102;SHT30;64830;46.910;6.354;2024-03-02T05:37:33;4.65;74.61
76102;SHT30;64830;46.910;6.354;2024-03-02T05:39:59;4.65;74.50
76102;SHT30;64830;46.910;6.354;2024-03-02T05:42:24;4.68;74.50
76102;SHT30;64830;46.910;6.354;2024-03-02T05:44:50;4.69;74.64
76102;SHT30;64830;46.910;6.354;2024-03-02T05:47:18;4.67;74.59
76102;SHT30;64830;46.910;6.354;2024-03-02T05:49:46;4.68;74.71
76102;SHT30;64830;46.910;6.354;2024-03-02T05:52:12;4.69;74.80
76102;SHT30;64830;46.910;6.354;2024-03-02T05:54:40;4.72;74.80
76102;SHT30;64830;46.910;6.354;2024-03-02T05:57:09;4.72;74.88
76102;SHT30;64830;46.910;6.354;2024-03-02T05:59:55;4.75;74.90
76102;SHT30;64830;46.910;6.354;2024-03-02T06:02:21;4.75;74.92
76102;SHT30;64830;46.910;6.354;2024-03-02T06:04:59;4.83;74.92
76102;SHT30;64830;46.910;6.354;2024-03-02T06:07:24;4.86;74.88
76102;SHT30;64830;46.910;6.354;2024-03-02T06:09:50;4.93;74.86
76102;SHT30;64830;46.910;6.354;2024-03-02T06:12:17;4.99;74.93
76102;SHT30;64830;46.910;6.354;2024-03-02T06:14:43;5.03;74.76
76102;SHT30;64830;46.910;6.354;2024-03-02T06:17:08;5.07;74.60
76102;SHT30;64830;46.910;6.354;2024-03-02T06:19:34;5.12;74.63
76102;SHT30;64830;46.910;6.354;2024-03-02T06:21:59;5.16;74.59
76102;SHT30;64830;46.910;6.354;2024-03-02T06:24:25;5.16;74.53
76102;SHT30;64830;46.910;6.354;2024-03-02T06:26:53;5.20;74.56
76102;SHT30;64830;46.910;6.354;2024-03-02T06:29:20;5.27;74.57
76102;SHT30;64830;46.910;6.354;2024-03-02T06:31:49;5.30;74.30
76102;SHT30;64830;46.910;6.354;2024-03-02T06:34:15;5.35;74.44
76102;SHT30;64830;46.910;6.354;2024-03-02T06:36:40;5.40;74.70
76102;SHT30;64830;46.910;6.354;2024-03-02T06:39:40;5.50;74.47
76102;SHT30;64830;46.910;6.354;2024-03-02T06:42:08;5.58;74.36
76102;SHT30;64830;46.910;6.354;2024-03-02T06:44:45;5.61;74.25
76102;SHT30;64830;46.910;6.354;2024-03-02T06:47:10;5.65;74.16
76102;SHT30;64830;46.910;6.354;2024-03-02T06:49:42;5.68;74.10
76102;SHT30;64830;46.910;6.354;2024-03-02T06:52:08;5.73;74.05
76102;SHT30;64830;46.910;6.354;2024-03-02T06:54:39;5.75;74.14
76102;SHT30;64830;46.910;6.354;2024-03-02T06:57:04;5.82;74.00
76102;SHT30;64830;46.910;6.354;2024-03-02T06:59:30;5.89;73.91
76102;SHT30;64830;46.910;6.354;2024-03-02T07:01:55;5.96;73.77
76102;SHT30;64830;46.910;6.354;2024-03-02T07:04:25;6.00;73.66
76102;SHT30;64830;46.910;6.354;2024-03-02T07:06:53;6.11;73.55
76102;SHT30;64830;46.910;6.354;2024-03-02T07:09:23;6.18;73.50
76102;SHT30;64830;46.910;6.354;2024-03-02T07:11:51;6.30;73.39
76102;SHT30;64830;46.910;6.354;2024-03-02T07:14:17;6.37;73.15
76102;SHT30;64830;46.910;6.354;2024-03-02T07:16:42;6.41;73.00
76102;SHT30;64830;46.910;6.354;2024-03-02T07:19:08;6.44;72.98
76102;SHT30;64830;46.910;6.354;2024-03-02T07:21:34;6.49;72.99
76102;SHT30;64830;46.910;6.354;2024-03-02T07:23:59;6.55;72.84
76102;SHT30;64830;46.910;6.354;2024-03-02T07:26:28;6.61;72.92
76102;SHT30;64830;46.910;6.354;2024-03-02T07:28:57;6.67;72.74
76102;SHT30;64830;46.910;6.354;2024-03-02T07:31:23;6.75;72.64
76102;SHT30;64830;46.910;6.354;2024-03-02T07:33:48;6.79;72.39
76102;SHT30;64830;46.910;6.354;2024-03-02T07:36:14;6.85;72.40
76102;SHT30;64830;46.910;6.354;2024-03-02T07:38:40;6.90;72.24
76102;SHT30;64830;46.910;6.354;2024-03-02T07:41:06;6.95;72.10
76102;SHT30;64830;46.910;6.354;2024-03-02T07:43:31;7.03;72.13
76102;SHT30;64830;46.910;6.354;2024-03-02T07:45:58;7.03;72.00
76102;SHT30;64830;46.910;6.354;2024-03-02T07:48:24;7.07;71.75
76102;SHT30;64830;46.910;6.354;2024-03-02T07:50:50;7.11;71.76
76102;SHT30;64830;46.910;6.354;2024-03-02T07:53:15;7.17;71.87
76102;SHT30;64830;46.910;6.354;2024-03-02T07:55:41;7.18;71.76
76102;SHT30;64830;46.910;6.354;2024-03-02T07:58:06;7.25;71.63
76102;SHT30;64830;46.910;6.354;2024-03-02T08:00:32;7.30;71.40
76102;SHT30;64830;46.910;6.354;2024-03-02T08:02:58;7.34;71.39
76102;SHT30;64830;46.910;6.354;2024-03-02T08:05:26;7.35;71.22
76102;SHT30;64830;46.910;6.354;2024-03-02T08:07:53;7.40;71.02
76102;SHT30;64830;46.910;6.354;2024-03-02T08:10:18;7.47;71.14
76102;SHT30;64830;46.910;6.354;2024-03-02T08:12:44;7.52;70.94
76102;SHT30;64830;46.910;6.354;2024-03-02T08:15:09;7.58;70.79
76102;SHT30;64830;46.910;6.354;2024-03-02T08:17:35;7.65;70.60
76102;SHT30;64830;46.910;6.354;2024-03-02T08:20:01;7.68;70.41
76102;SHT30;64830;46.910;6.354;2024-03-02T08:22:27;7.77;70.36
76102;SHT30;64830;46.910;6.354;2024-03-02T08:24:52;7.85;70.07
76102;SHT30;64830;46.910;6.354;2024-03-02T08:27:18;7.87;70.11
76102;SHT30;64830;46.910;6.354;2024-03-02T08:29:44;7.93;69.91
76102;SHT30;64830;46.910;6.354;2024-03-02T08:32:09;7.98;69.70
76102;SHT30;64830;46.910;6.354;2024-03-02T08:34:40;8.07;69.69
76102;SHT30;64830;46.910;6.354;2024-03-02T08:37:06;8.14;69.50
76102;SHT30;64830;46.910;6.354;2024-03-02T08:39:34;8.24;69.52
76102;SHT30;64830;46.910;6.354;2024-03-02T08:41:59;8.31;68.39
76102;SHT30;64830;46.910;6.354;2024-03-02T08:44:25;8.41;69.25
76102;SHT30;64830;46.910;6.354;2024-03-02T08:46:51;8.53;68.89
76102;SHT30;64830;46.910;6.354;2024-03-02T08:49:16;8.62;68.46
76102;SHT30;64830;46.910;6.354;2024-03-02T08:51:42;8.73;68.21
76102;SHT30;64830;46.910;6.354;2024-03-02T08:54:07;8.88;68.15
76102;SHT30;64830;46.910;6.354;2024-03-02T08:56:32;9.07;67.66
76102;SHT30;64830;46.910;6.354;2024-03-02T08:58:58;9.25;66.04
76102;SHT30;64830;46.910;6.354;2024-03-02T09:01:23;9.40;64.80
76102;SHT30;64830;46.910;6.354;2024-03-02T09:03:49;9.49;65.44
76102;SHT30;64830;46.910;6.354;2024-03-02T09:06:15;9.65;65.61
76102;SHT30;64830;46.910;6.354;2024-03-02T09:08:42;9.86;64.46
76102;SHT30;64830;46.910;6.354;2024-03-02T09:11:08;10.02;63.53
76102;SHT30;64830;46.910;6.354;2024-03-02T09:13:34;10.19;63.61
76102;SHT30;64830;46.910;6.354;2024-03-02T09:16:00;10.34;63.65
76102;SHT30;64830;46.910;6.354;2024-03-02T09:18:26;10.48;63.86
76102;SHT30;64830;46.910;6.354;2024-03-02T09:20:51;10.57;62.80
76102;SHT30;64830;46.910;6.354;2024-03-02T09:23:17;10.63;62.62
76102;SHT30;64830;46.910;6.354;2024-03-02T09:25:42;10.65;62.29
76102;SHT30;64830;46.910;6.354;2024-03-02T09:28:07;10.69;62.26
76102;SHT30;64830;46.910;6.354;2024-03-02T09:30:33;10.74;62.45
76102;SHT30;64830;46.910;6.354;2024-03-02T09:33:04;10.84;61.87
76102;SHT30;64830;46.910;6.354;2024-03-02T09:35:30;10.93;62.24
76102;SHT30;64830;46.910;6.354;2024-03-02T09:38:01;11.10;61.64
76102;SHT30;64830;46.910;6.354;2024-03-02T09:40:30;11.28;61.65
76102;SHT30;64830;46.910;6.354;2024-03-02T09:43:02;11.43;61.07
76102;SHT30;64830;46.910;6.354;2024-03-02T09:45:29;11.55;60.67
76102;SHT30;64830;46.910;6.354;2024-03-02T09:47:55;11.65;60.40
76102;SHT30;64830;46.910;6.354;2024-03-02T09:50:20;11.70;60.10
76102;SHT30;64830;46.910;6.354;2024-03-02T09:52:49;11.76;60.15
76102;SHT30;64830;46.910;6.354;2024-03-02T09:55:25;11.87;60.06
76102;SHT30;64830;46.910;6.354;2024-03-02T09:57:53;12.00;59.79
76102;SHT30;64830;46.910;6.354;2024-03-02T10:00:18;12.08;59.37
76102;SHT30;64830;46.910;6.354;2024-03-02T10:02:44;12.07;58.96
76102;SHT30;64830;46.910;6.354;2024-03-02T10:05:10;12.08;59.44
76102;SHT30;64830;46.910;6.354;2024-03-02T10:07:38;12.07;59.11
76102;SHT30;64830;46.910;6.354;2024-03-02T10:10:14;12.00;57.72
76102;SHT30;64830;46.910;6.354;2024-03-02T10:12:39;11.98;58.71
76102;SHT30;64830;46.910;6.354;2024-03-02T10:15:05;12.07;58.94
76102;SHT30;64830;46.910;6.354;2024-03-02T10:17:31;12.18;58.36
76102;SHT30;64830;46.910;6.354;2024-03-02T10:19:57;12.29;57.97
76102;SHT30;64830;46.910;6.354;2024-03-02T10:22:24;12.38;57.54
76102;SHT30;64830;46.910;6.354;2024-03-02T10:24:57;12.39;53.85
76102;SHT30;64830;46.910;6.354;2024-03-02T10:27:26;12.41;55.93
76102;SHT30;64830;46.910;6.354;2024-03-02T10:29:52;12.36;53.56
76102;SHT30;64830;46.910;6.354;2024-03-02T10:32:24;12.38;55.40
76102;SHT30;64830;46.910;6.354;2024-03-02T10:34:52;12.38;55.23
76102;SHT30;64830;46.910;6.354;2024-03-02T10:37:19;12.39;53.26
76102;SHT30;64830;46.910;6.354;2024-03-02T10:39:47;12.31;53.70
76102;SHT30;64830;46.910;6.354;2024-03-02T10:42:17;12.22;53.23
76102;SHT30;64830;46.910;6.354;2024-03-02T10:44:44;12.14;52.33
76102;SHT30;64830;46.910;6.354;2024-03-02T10:47:14;12.08;54.20
76102;SHT30;64830;46.910;6.354;2024-03-02T10:49:48;12.02;53.59
76102;SHT30;64830;46.910;6.354;2024-03-02T10:52:22;12.00;54.43
76102;SHT30;64830;46.910;6.354;2024-03-02T10:54:55;12.07;53.13
76102;SHT30;64830;46.910;6.354;2024-03-02T10:57:26;12.07;53.99
76102;SHT30;64830;46.910;6.354;2024-03-02T11:00:12;12.08;54.29
76102;SHT30;64830;46.910;6.354;2024-03-02T11:02:56;12.08;53.94
76102;SHT30;64830;46.910;6.354;2024-03-02T11:05:31;12.13;54.34
76102;SHT30;64830;46.910;6.354;2024-03-02T11:08:01;12.14;55.54
76102;SHT30;64830;46.910;6.354;2024-03-02T11:10:35;12.17;54.38
76102;SHT30;64830;46.910;6.354;2024-03-02T11:13:05;12.11;55.04
76102;SHT30;64830;46.910;6.354;2024-03-02T11:15:34;12.17;55.55
76102;SHT30;64830;46.910;6.354;2024-03-02T11:18:04;12.21;54.12
76102;SHT30;64830;46.910;6.354;2024-03-02T11:20:32;12.24;55.38
76102;SHT30;64830;46.910;6.354;2024-03-02T11:23:18;12.39;55.72
76102;SHT30;64830;46.910;6.354;2024-03-02T11:26:25;12.52;55.01
76102;SHT30;64830;46.910;6.354;2024-03-02T11:28:53;12.64;54.19
76102;SHT30;64830;46.910;6.354;2024-03-02T11:31:21;12.79;52.34
76102;SHT30;64830;46.910;6.354;2024-03-02T11:33:49;12.83;50.62
76102;SHT30;64830;46.910;6.354;2024-03-02T11:36:17;12.86;49.95
76102;SHT30;64830;46.910;6.354;2024-03-02T11:38:52;12.86;48.86
76102;SHT30;64830;46.910;6.354;2024-03-02T11:41:31;12.91;49.33
76102;SHT30;64830;46.910;6.354;2024-03-02T11:43:59;12.98;50.73
76102;SHT30;64830;46.910;6.354;2024-03-02T11:46:30;13.07;50.65
76102;SHT30;64830;46.910;6.354;2024-03-02T11:49:02;13.10;50.91
76102;SHT30;64830;46.910;6.354;2024-03-02T11:51:27;13.15;50.57
76102;SHT30;64830;46.910;6.354;2024-03-02T11:54:00;13.19;50.31
76102;SHT30;64830;46.910;6.354;2024-03-02T11:56:46;13.25;49.79
76102;SHT30;64830;46.910;6.354;2024-03-02T11:59:37;13.21;48.89
76102;SHT30;64830;46.910;6.354;2024-03-02T12:02:05;13.10;48.19
76102;SHT30;64830;46.910;6.354;2024-03-02T12:04:49;13.03;48.01
76102;SHT30;64830;46.910;6.354;2024-03-02T12:07:22;13.00;50.27
76102;SHT30;64830;46.910;6.354;2024-03-02T12:10:06;13.04;50.21
76102;SHT30;64830;46.910;6.354;2024-03-02T12:12:34;13.08;50.88
76102;SHT30;64830;46.910;6.354;2024-03-02T12:15:08;13.10;50.91
76102;SHT30;64830;46.910;6.354;2024-03-02T12:17:41;13.10;51.02
76102;SHT30;64830;46.910;6.354;2024-03-02T12:20:19;13.11;51.00
76102;SHT30;64830;46.910;6.354;2024-03-02T12:22:52;13.11;50.92
76102;SHT30;64830;46.910;6.354;2024-03-02T12:25:21;13.10;50.80
76102;SHT30;64830;46.910;6.354;2024-03-02T12:28:02;13.08;51.17
76102;SHT30;64830;46.910;6.354;2024-03-02T12:30:40;13.08;50.52
76102;SHT30;64830;46.910;6.354;2024-03-02T12:33:05;13.07;50.87
76102;SHT30;64830;46.910;6.354;2024-03-02T12:35:31;13.04;50.71
76102;SHT30;64830;46.910;6.354;2024-03-02T12:37:57;13.01;50.47
76102;SHT30;64830;46.910;6.354;2024-03-02T12:40:23;12.94;50.04
76102;SHT30;64830;46.910;6.354;2024-03-02T12:43:09;12.91;50.74
76102;SHT30;64830;46.910;6.354;2024-03-02T12:45:39;12.87;50.21
76102;SHT30;64830;46.910;6.354;2024-03-02T12:48:04;12.86;49.81
76102;SHT30;64830;46.910;6.354;2024-03-02T12:50:35;12.83;50.84
76102;SHT30;64830;46.910;6.354;2024-03-02T12:53:01;12.79;49.06
76102;SHT30;64830;46.910;6.354;2024-03-02T12:55:27;12.76;50.36
76102;SHT30;64830;46.910;6.354;2024-03-02T12:57:54;12.79;50.46
76102;SHT30;64830;46.910;6.354;2024-03-02T13:00:20;12.81;48.81
76102;SHT30;64830;46.910;6.354;2024-03-02T13:02:47;12.94;49.92
76102;SHT30;64830;46.910;6.354;2024-03-02T13:05:13;13.10;50.28
76102;SHT30;64830;46.910;6.354;2024-03-02T13:07:38;13.35;50.61
76102;SHT30;64830;46.910;6.354;2024-03-02T13:10:06;13.48;47.70
76102;SHT30;64830;46.910;6.354;2024-03-02T13:12:32;13.53;46.97
76102;SHT30;64830;46.910;6.354;2024-03-02T13:14:58;13.52;47.86
76102;SHT30;64830;46.910;6.354;2024-03-02T13:17:24;13.52;48.35
76102;SHT30;64830;46.910;6.354;2024-03-02T13:19:59;13.53;49.79
76102;SHT30;64830;46.910;6.354;2024-03-02T13:22:26;13.53;48.79
76102;SHT30;64830;46.910;6.354;2024-03-02T13:24:52;13.50;47.77
76102;SHT30;64830;46.910;6.354;2024-03-02T13:27:19;13.45;47.71
76102;SHT30;64830;46.910;6.354;2024-03-02T13:29:48;13.39;45.97
76102;SHT30;64830;46.910;6.354;2024-03-02T13:32:17;13.29;48.22
76102;SHT30;64830;46.910;6.354;2024-03-02T13:34:48;13.26;48.03
76102;SHT30;64830;46.910;6.354;2024-03-02T13:37:14;13.21;45.66
76102;SHT30;64830;46.910;6.354;2024-03-02T13:39:39;13.11;46.79
76102;SHT30;64830;46.910;6.354;2024-03-02T13:42:09;13.03;48.22
76102;SHT30;64830;46.910;6.354;2024-03-02T13:44:36;13.04;48.28
76102;SHT30;64830;46.910;6.354;2024-03-02T13:47:02;12.98;47.97
76102;SHT30;64830;46.910;6.354;2024-03-02T13:49:27;12.93;47.43
76102;SHT30;64830;46.910;6.354;2024-03-02T13:52:05;12.86;47.30
76102;SHT30;64830;46.910;6.354;2024-03-02T13:54:39;12.81;47.17
76102;SHT30;64830;46.910;6.354;2024-03-02T13:57:06;12.80;47.56
76102;SHT30;64830;46.910;6.354;2024-03-02T13:59:34;12.76;46.32
76102;SHT30;64830;46.910;6.354;2024-03-02T14:02:01;12.69;47.00
76102;SHT30;64830;46.910;6.354;2024-03-02T14:04:26;12.70;47.66
76102;SHT30;64830;46.910;6.354;2024-03-02T14:06:52;12.70;47.86
76102;SHT30;64830;46.910;6.354;2024-03-02T14:09:18;12.69;47.85
76102;SHT30;64830;46.910;6.354;2024-03-02T14:11:45;12.69;48.01
76102;SHT30;64830;46.910;6.354;2024-03-02T14:14:11;12.69;47.38
76102;SHT30;64830;46.910;6.354;2024-03-02T14:16:36;12.67;47.09
76102;SHT30;64830;46.910;6.354;2024-03-02T14:19:02;12.60;46.79
76102;SHT30;64830;46.910;6.354;2024-03-02T14:21:32;12.56;46.81
76102;SHT30;64830;46.910;6.354;2024-03-02T14:23:57;12.52;47.39
76102;SHT30;64830;46.910;6.354;2024-03-02T14:26:26;12.53;46.91
76102;SHT30;64830;46.910;6.354;2024-03-02T14:28:53;12.50;46.91
76102;SHT30;64830;46.910;6.354;2024-03-02T14:31:21;12.45;46.75
76102;SHT30;64830;46.910;6.354;2024-03-02T14:33:47;12.46;46.49
76102;SHT30;64830;46.910;6.354;2024-03-02T14:36:12;12.45;47.01
76102;SHT30;64830;46.910;6.354;2024-03-02T14:38:38;12.42;46.25
76102;SHT30;64830;46.910;6.354;2024-03-02T14:41:04;12.42;47.64
76102;SHT30;64830;46.910;6.354;2024-03-02T14:43:30;12.45;47.53
76102;SHT30;64830;46.910;6.354;2024-03-02T14:45:56;12.46;47.31
76102;SHT30;64830;46.910;6.354;2024-03-02T14:48:22;12.49;47.43
76102;SHT30;64830;46.910;6.354;2024-03-02T14:50:59;12.48;46.58
76102;SHT30;64830;46.910;6.354;2024-03-02T14:53:25;12.48;46.54
76102;SHT30;64830;46.910;6.354;2024-03-02T14:55:50;12.45;47.43
76102;SHT30;64830;46.910;6.354;2024-03-02T14:58:16;12.43;47.34
76102;SHT30;64830;46.910;6.354;2024-03-02T15:00:41;12.43;47.73
76102;SHT30;64830;46.910;6.354;2024-03-02T15:03:07;12.41;48.52
76102;SHT30;64830;46.910;6.354;2024-03-02T15:05:34;12.43;48.52
76102;SHT30;64830;46.910;6.354;2024-03-02T15:08:00;12.45;48.45
76102;SHT30;64830;46.910;6.354;2024-03-02T15:10:27;12.42;47.84
76102;SHT30;64830;46.910;6.354;2024-03-02T15:12:53;12.36;48.04
76102;SHT30;64830;46.910;6.354;2024-03-02T15:15:19;12.31;48.74
76102;SHT30;64830;46.910;6.354;2024-03-02T15:17:44;12.26;48.33
76102;SHT30;64830;46.910;6.354;2024-03-02T15:20:10;12.24;48.93
76102;SHT30;64830;46.910;6.354;2024-03-02T15:22:35;12.22;48.94
76102;SHT30;64830;46.910;6.354;2024-03-02T15:25:00;12.18;49.29
76102;SHT30;64830;46.910;6.354;2024-03-02T15:27:29;12.20;49.38
76102;SHT30;64830;46.910;6.354;2024-03-02T15:29:55;12.18;50.01
76102;SHT30;64830;46.910;6.354;2024-03-02T15:32:22;12.14;50.58
76102;SHT30;64830;46.910;6.354;2024-03-02T15:34:47;12.11;51.03
76102;SHT30;64830;46.910;6.354;2024-03-02T15:37:19;12.07;50.69
76102;SHT30;64830;46.910;6.354;2024-03-02T15:39:44;12.02;50.82
76102;SHT30;64830;46.910;6.354;2024-03-02T15:42:10;11.97;50.95
76102;SHT30;64830;46.910;6.354;2024-03-02T15:44:35;11.91;51.46
76102;SHT30;64830;46.910;6.354;2024-03-02T15:47:01;11.87;51.24
76102;SHT30;64830;46.910;6.354;2024-03-02T15:49:26;11.80;51.43
76102;SHT30;64830;46.910;6.354;2024-03-02T15:51:53;11.76;51.87
76102;SHT30;64830;46.910;6.354;2024-03-02T15:54:18;11.74;51.96